Time;durP1;ratioP1;P1;durP2;ratioP2;P2;SDS_P1;SDS_P2;PMS_P1;PMS_P2;Temp;Humidity;BMP_temperature;BMP_pressure;BME280_temperature;BME280_humidity;BME280_pressure;Samples;Min_cycle;Max_cycle;Signal;HPM_P1;HPM_P2
2023/04/06 00:00:33;;;;;;;9.55;6.75;;;4.40;99.90;;;;;;5011832;28;20111;-45
2023/04/06 00:02:58;;;;;;;7.57;6.03;;;4.40;99.90;;;;;;5011665;28;20029;-45
2023/04/06 00:05:24;;;;;;;12.93;6.60;;;4.40;99.90;;;;;;5011883;28;20026;-45
2023/04/06 00:07:50;;;;;;;11.93;6.28;;;4.40;99.90;;;;;;4994127;28;20022;-46
2023/04/06 00:10:16;;;;;;;12.02;5.97;;;4.40;99.90;;;;;;5012025;28;20030;-41
2023/04/06 00:12:42;;;;;;;7.50;6.00;;;4.40;99.90;;;;;;5011470;28;20026;-44
2023/04/06 00:15:08;;;;;;;11.70;6.45;;;4.40;99.90;;;;;;5011746;28;20034;-46
2023/04/06 00:17:34;;;;;;;9.95;6.00;;;4.30;99.90;;;;;;5011497;28;20065;-47
2023/04/06 00:19:59;;;;;;;9.38;5.90;;;4.30;99.90;;;;;;5011506;28;20470;-44
2023/04/06 00:22:25;;;;;;;10.50;5.45;;;4.30;99.90;;;;;;5011480;28;20383;-44
2023/04/06 00:24:50;;;;;;;8.13;6.10;;;4.30;99.90;;;;;;5011425;28;20105;-46
2023/04/06 00:27:16;;;;;;;7.43;5.97;;;4.30;99.90;;;;;;5011667;28;20102;-45
2023/04/06 00:29:41;;;;;;;8.18;5.78;;;4.30;99.90;;;;;;5011643;28;20079;-45
2023/04/06 00:32:07;;;;;;;10.82;5.90;;;4.30;99.90;;;;;;5011342;28;20370;-44
2023/04/06 00:34:32;;;;;;;11.77;5.57;;;4.30;99.90;;;;;;4994013;28;20479;-45
2023/04/06 00:36:58;;;;;;;9.93;5.95;;;4.30;99.90;;;;;;5011761;28;20034;-45
2023/04/06 00:39:23;;;;;;;8.88;5.05;;;4.30;99.90;;;;;;5011875;28;20037;-44
2023/04/06 00:41:52;;;;;;;10.38;5.95;;;4.30;99.90;;;;;;5011770;28;20101;-44
2023/04/06 00:44:18;;;;;;;7.57;5.38;;;4.20;99.90;;;;;;5012295;28;20430;-44
2023/04/06 00:46:44;;;;;;;7.25;5.13;;;4.20;99.90;;;;;;5012087;28;20026;-45
2023/04/06 00:49:10;;;;;;;7.47;5.65;;;4.10;99.90;;;;;;5011571;28;20373;-49
2023/04/06 00:51:36;;;;;;;10.30;5.22;;;4.10;99.90;;;;;;4993599;28;20104;-45
2023/04/06 00:54:01;;;;;;;9.00;6.25;;;4.10;99.90;;;;;;5011598;28;20080;-45
2023/04/06 00:56:27;;;;;;;10.07;5.38;;;4.00;99.90;;;;;;5011548;28;20040;-48
2023/04/06 00:58:53;;;;;;;6.00;5.32;;;4.00;99.90;;;;;;5011250;28;20026;-46
2023/04/06 01:01:18;;;;;;;7.18;5.03;;;3.90;99.90;;;;;;5011875;28;20065;-44
2023/04/06 01:03:47;;;;;;;6.47;5.22;;;3.90;99.90;;;;;;5014963;28;20068;-44
2023/04/06 01:06:12;;;;;;;9.52;5.22;;;3.80;99.90;;;;;;5014880;28;20053;-44
2023/04/06 01:08:38;;;;;;;9.60;6.38;;;3.70;99.90;;;;;;4997221;28;20068;-44
2023/04/06 01:11:03;;;;;;;8.88;6.07;;;3.70;99.90;;;;;;5014797;28;20026;-44
2023/04/06 01:13:29;;;;;;;7.18;6.03;;;3.80;99.90;;;;;;5014932;28;20076;-48
2023/04/06 01:15:55;;;;;;;9.48;6.32;;;3.70;99.90;;;;;;5014735;28;20072;-46
2023/04/06 01:18:26;;;;;;;6.38;5.57;;;3.50;99.90;;;;;;5014507;28;20032;-46
2023/04/06 01:20:51;;;;;;;14.60;6.57;;;3.40;99.90;;;;;;5014547;28;20056;-49
2023/04/06 01:23:17;;;;;;;10.95;5.68;;;3.40;99.90;;;;;;5014311;28;20034;-44
2023/04/06 01:25:42;;;;;;;8.27;6.03;;;3.30;99.90;;;;;;5014545;28;20052;-44
2023/04/06 01:28:08;;;;;;;6.93;5.90;;;3.30;99.90;;;;;;5014565;28;20065;-44
2023/04/06 01:30:34;;;;;;;7.68;5.75;;;3.20;99.90;;;;;;5014081;28;20056;-49
2023/04/06 01:33:00;;;;;;;9.35;5.93;;;3.20;99.90;;;;;;5014240;28;20037;-43
2023/04/06 01:35:26;;;;;;;10.13;5.90;;;3.20;99.90;;;;;;5014014;28;20104;-46
2023/04/06 01:37:52;;;;;;;9.93;5.93;;;3.10;99.90;;;;;;4996726;28;20076;-46
2023/04/06 01:40:17;;;;;;;9.10;6.45;;;3.00;99.90;;;;;;5014127;28;20053;-44
2023/04/06 01:42:43;;;;;;;7.50;5.88;;;3.00;99.90;;;;;;5013997;28;20108;-44
2023/04/06 01:45:09;;;;;;;6.28;4.95;;;3.00;99.90;;;;;;5014275;28;20030;-44
2023/04/06 01:47:34;;;;;;;9.20;6.72;;;2.90;99.90;;;;;;5013997;28;20032;-48
2023/04/06 01:50:00;;;;;;;6.97;5.72;;;3.00;99.90;;;;;;5014148;28;20021;-46
2023/04/06 01:52:25;;;;;;;10.02;5.85;;;3.00;99.90;;;;;;5013756;28;20510;-44
2023/04/06 01:54:51;;;;;;;6.57;5.43;;;3.00;99.90;;;;;;5013742;28;20409;-45
2023/04/06 01:57:17;;;;;;;7.63;5.95;;;3.00;99.90;;;;;;5013908;28;20026;-45
2023/04/06 01:59:42;;;;;;;7.38;5.13;;;3.00;99.90;;;;;;5013656;28;20494;-46
2023/04/06 02:02:08;;;;;;;8.40;5.15;;;3.00;99.90;;;;;;5013471;28;20129;-45
2023/04/06 02:04:33;;;;;;;11.50;5.18;;;3.00;99.90;;;;;;5013872;28;20026;-46
2023/04/06 02:06:59;;;;;;;7.18;5.03;;;3.00;99.90;;;;;;5013743;28;20528;-44
2023/04/06 02:09:24;;;;;;;9.63;5.47;;;3.00;99.90;;;;;;5013529;28;20100;-46
2023/04/06 02:11:50;;;;;;;9.40;4.90;;;2.90;99.90;;;;;;5013357;28;20034;-43
2023/04/06 02:14:15;;;;;;;6.95;5.82;;;2.80;99.90;;;;;;4994798;28;20500;-43
2023/04/06 02:16:41;;;;;;;9.23;4.93;;;2.80;99.90;;;;;;5013608;28;20034;-45
2023/04/06 02:19:06;;;;;;;7.38;5.20;;;2.70;99.90;;;;;;5013640;28;20034;-46
2023/04/06 02:21:32;;;;;;;9.30;6.32;;;2.80;99.90;;;;;;4995706;28;20133;-46
2023/04/06 02:23:57;;;;;;;13.70;6.35;;;2.70;99.90;;;;;;5013244;28;20041;-44
2023/04/06 02:26:23;;;;;;;6.38;5.22;;;2.70;99.90;;;;;;5013353;28;20022;-47
2023/04/06 02:28:48;;;;;;;8.75;4.97;;;2.70;99.90;;;;;;5013296;28;20021;-43
2023/04/06 02:31:15;;;;;;;8.82;6.20;;;2.70;99.90;;;;;;5013074;28;20075;-47
2023/04/06 02:33:40;;;;;;;7.00;5.70;;;2.70;99.90;;;;;;5013154;28;20101;-43
2023/04/06 02:36:06;;;;;;;9.80;5.60;;;2.70;99.90;;;;;;4995566;28;20462;-48
2023/04/06 02:38:32;;;;;;;6.72;5.13;;;2.70;99.90;;;;;;5012987;28;20048;-46
2023/04/06 02:40:57;;;;;;;9.88;5.93;;;2.60;99.90;;;;;;5013113;28;20026;-47
2023/04/06 02:43:22;;;;;;;10.73;5.55;;;2.50;99.90;;;;;;5012919;28;20397;-47
2023/04/06 02:45:48;;;;;;;7.88;5.00;;;2.50;99.90;;;;;;5012785;28;20076;-44
2023/04/06 02:48:14;;;;;;;6.93;4.85;;;2.50;99.90;;;;;;5012943;28;20036;-46
2023/04/06 02:50:40;;;;;;;9.23;5.78;;;2.40;99.90;;;;;;5012616;28;20018;-48
2023/04/06 02:53:05;;;;;;;10.23;5.47;;;2.40;99.90;;;;;;5012567;28;20026;-44
2023/04/06 02:55:31;;;;;;;7.70;4.72;;;2.40;99.90;;;;;;4995317;28;20022;-50
2023/04/06 02:57:56;;;;;;;10.27;5.55;;;2.40;99.90;;;;;;5012549;28;20029;-46
2023/04/06 03:00:22;;;;;;;6.78;5.40;;;2.40;99.90;;;;;;5012636;28;20026;-44
2023/04/06 03:02:47;;;;;;;7.03;5.32;;;2.30;99.90;;;;;;5012751;28;20099;-44
2023/04/06 03:05:13;;;;;;;9.88;5.00;;;2.30;99.90;;;;;;5012849;28;20505;-44
2023/04/06 03:07:38;;;;;;;10.65;6.30;;;2.30;99.90;;;;;;5013293;28;20033;-46
2023/04/06 03:10:04;;;;;;;9.50;5.63;;;2.30;99.90;;;;;;5012648;28;20030;-47
2023/04/06 03:12:30;;;;;;;10.20;4.97;;;;;;;;;;5012252;28;20482;-45
2023/04/06 03:14:56;;;;;;;8.05;5.32;;;;;;;;;;5012344;28;20036;-44
2023/04/06 03:17:22;;;;;;;9.57;5.88;;;;;;;;;;5012716;28;20505;-49
2023/04/06 03:19:48;;;;;;;7.43;5.10;;;;;;;;;;5012025;28;20383;-47
2023/04/06 03:22:13;;;;;;;12.63;5.60;;;2.30;99.90;;;;;;5012178;28;20044;-45
2023/04/06 03:24:39;;;;;;;9.68;6.18;;;2.30;99.90;;;;;;5012112;28;20029;-45
2023/04/06 03:27:06;;;;;;;7.88;5.72;;;2.20;99.90;;;;;;5012251;28;20018;-46
2023/04/06 03:29:31;;;;;;;12.98;5.20;;;2.10;99.90;;;;;;5012461;28;20022;-48
2023/04/06 03:31:57;;;;;;;6.05;5.28;;;2.00;99.90;;;;;;5011967;28;20040;-44
2023/04/06 03:34:22;;;;;;;8.07;5.15;;;2.10;99.90;;;;;;5011759;28;20101;-50
2023/04/06 03:36:48;;;;;;;7.40;5.32;;;2.10;99.90;;;;;;5012009;28;20034;-44
2023/04/06 03:39:13;;;;;;;7.57;5.82;;;2.00;99.90;;;;;;5012034;28;20026;-45
2023/04/06 03:41:39;;;;;;;10.52;6.78;;;2.00;99.90;;;;;;4994053;28;20113;-47
2023/04/06 03:44:05;;;;;;;10.52;6.18;;;2.00;99.90;;;;;;5012396;28;20052;-46
2023/04/06 03:46:31;;;;;;;18.50;7.60;;;1.90;99.90;;;;;;5011848;28;20489;-46
2023/04/06 03:48:56;;;;;;;6.68;5.43;;;1.80;99.90;;;;;;5011999;28;20048;-44
2023/04/06 03:51:22;;;;;;;15.25;6.18;;;1.70;99.90;;;;;;5012005;28;20071;-44
2023/04/06 03:53:47;;;;;;;24.45;5.95;;;1.70;99.90;;;;;;5011908;28;20497;-44
2023/04/06 03:56:13;;;;;;;6.90;4.93;;;1.60;99.90;;;;;;5012463;28;20022;-47
2023/04/06 03:58:39;;;;;;;9.63;5.93;;;1.50;99.90;;;;;;5011859;28;20033;-44
2023/04/06 04:01:04;;;;;;;19.35;6.10;;;1.40;99.90;;;;;;5011761;28;20111;-43
2023/04/06 04:03:30;;;;;;;11.45;6.10;;;1.40;99.90;;;;;;5011567;28;20081;-47
2023/04/06 04:05:55;;;;;;;9.50;6.00;;;1.40;99.90;;;;;;5012083;28;20030;-50
2023/04/06 04:08:21;;;;;;;10.50;5.43;;;1.40;99.90;;;;;;5011686;28;20025;-43
2023/04/06 04:10:47;;;;;;;10.80;5.57;;;1.40;99.90;;;;;;5011711;28;20486;-45
2023/04/06 04:13:12;;;;;;;7.85;6.18;;;1.50;99.90;;;;;;5011648;28;20037;-43
2023/04/06 04:15:38;;;;;;;14.43;6.35;;;1.40;99.90;;;;;;5011573;28;20030;-48
2023/04/06 04:18:03;;;;;;;9.50;6.20;;;1.50;99.90;;;;;;5011677;28;20076;-48
2023/04/06 04:20:29;;;;;;;6.82;5.20;;;1.50;99.90;;;;;;5012131;28;20030;-46
2023/04/06 04:22:54;;;;;;;10.63;5.60;;;1.50;99.90;;;;;;5011427;28;20032;-46
2023/04/06 04:25:20;;;;;;;10.55;5.50;;;1.60;99.90;;;;;;4993955;28;20022;-45
2023/04/06 04:27:45;;;;;;;8.60;6.20;;;1.60;99.90;;;;;;4993746;28;20097;-46
2023/04/06 04:30:11;;;;;;;7.05;5.45;;;1.60;99.90;;;;;;4994440;28;20026;-46
2023/04/06 04:32:36;;;;;;;8.35;5.85;;;1.60;99.90;;;;;;5011283;28;20033;-46
2023/04/06 04:35:02;;;;;;;9.20;6.57;;;1.60;99.90;;;;;;5011541;28;20037;-46
2023/04/06 04:37:28;;;;;;;9.82;5.80;;;1.60;99.90;;;;;;5014519;28;20097;-41
2023/04/06 04:39:53;;;;;;;9.68;5.72;;;1.60;99.90;;;;;;5015727;28;20073;-42
2023/04/06 04:42:19;;;;;;;6.63;5.45;;;1.60;99.90;;;;;;5015832;28;20105;-49
2023/04/06 04:44:44;;;;;;;8.93;5.68;;;1.70;99.90;;;;;;5015375;28;20030;-44
2023/04/06 04:47:10;;;;;;;12.65;5.43;;;1.70;99.90;;;;;;5015635;28;20018;-46
2023/04/06 04:49:35;;;;;;;12.05;6.13;;;1.70;99.90;;;;;;5015601;28;20078;-45
2023/04/06 04:52:01;;;;;;;5.97;5.13;;;1.70;99.90;;;;;;5014993;28;20084;-46
2023/04/06 04:54:26;;;;;;;10.23;5.57;;;1.70;99.90;;;;;;4997614;28;20033;-43
2023/04/06 04:56:52;;;;;;;8.32;5.82;;;1.70;99.90;;;;;;5015459;28;20037;-46
2023/04/06 04:59:17;;;;;;;14.60;8.05;;;1.70;99.90;;;;;;5014942;28;20061;-48
2023/04/06 05:01:43;;;;;;;7.95;5.22;;;1.70;99.90;;;;;;5014568;28;20073;-44
2023/04/06 05:04:08;;;;;;;7.75;5.28;;;1.70;99.90;;;;;;5015062;28;20093;-43
2023/04/06 05:06:34;;;;;;;14.20;6.15;;;1.60;99.90;;;;;;5014888;28;20034;-45
2023/04/06 05:08:59;;;;;;;12.30;6.20;;;1.60;99.90;;;;;;5014733;28;20394;-45
2023/04/06 05:11:26;;;;;;;8.75;5.50;;;1.50;99.90;;;;;;5014810;28;20045;-46
2023/04/06 05:13:51;;;;;;;9.88;5.47;;;1.50;99.90;;;;;;5014714;28;20022;-45
2023/04/06 05:16:20;;;;;;;9.70;6.30;;;1.50;99.90;;;;;;5014928;28;20153;-45
2023/04/06 05:18:47;;;;;;;10.60;5.65;;;1.50;99.90;;;;;;4996922;28;20036;-47
2023/04/06 05:21:13;;;;;;;9.05;6.20;;;1.50;99.90;;;;;;5014440;28;20061;-44
2023/04/06 05:23:39;;;;;;;8.52;5.10;;;1.50;99.90;;;;;;5014390;28;20022;-44
2023/04/06 05:26:04;;;;;;;14.75;5.35;;;1.60;99.90;;;;;;5014471;28;20044;-44
2023/04/06 05:28:30;;;;;;;9.10;5.55;;;1.70;99.90;;;;;;5014247;28;20394;-44
2023/04/06 05:30:56;;;;;;;9.43;6.28;;;1.90;99.90;;;;;;5014468;28;20030;-44
2023/04/06 05:33:22;;;;;;;17.10;6.22;;;2.00;99.90;;;;;;5014495;28;20030;-44
2023/04/06 05:35:48;;;;;;;9.70;6.28;;;2.10;99.90;;;;;;5014412;28;20026;-44
2023/04/06 05:38:13;;;;;;;10.50;5.82;;;2.20;99.90;;;;;;5014374;28;20474;-44
2023/04/06 05:40:40;;;;;;;14.52;4.63;;;2.50;99.90;;;;;;4996498;28;20022;-49
2023/04/06 05:43:07;;;;;;;10.68;6.28;;;2.70;99.90;;;;;;5014084;28;20053;-45
2023/04/06 05:45:32;;;;;;;10.38;5.78;;;3.00;99.90;;;;;;5014679;28;20030;-44
2023/04/06 05:47:58;;;;;;;9.02;5.88;;;3.40;99.90;;;;;;5013805;28;20084;-45
2023/04/06 05:50:23;;;;;;;9.50;5.47;;;3.70;99.90;;;;;;5014177;28;20025;-47
2023/04/06 05:52:49;;;;;;;9.02;5.10;;;4.20;99.90;;;;;;5013899;28;20435;-46
2023/04/06 05:55:14;;;;;;;11.75;5.60;;;4.60;99.90;;;;;;5014057;28;20034;-47
2023/04/06 05:57:40;;;;;;;12.18;6.38;;;4.90;99.90;;;;;;4996431;28;20052;-49
2023/04/06 06:00:09;;;;;;;11.10;5.80;;;5.40;99.90;;;;;;5013877;28;20021;-46
2023/04/06 06:02:34;;;;;;;16.67;6.70;;;5.80;99.90;;;;;;5013663;28;20048;-47
2023/04/06 06:05:00;;;;;;;10.90;5.95;;;6.00;99.90;;;;;;4996836;28;20022;-46
2023/04/06 06:07:25;;;;;;;13.52;5.50;;;6.10;99.90;;;;;;5013957;28;20038;-46
2023/04/06 06:09:51;;;;;;;12.77;5.57;;;6.30;99.90;;;;;;5013586;28;20444;-47
2023/04/06 06:12:16;;;;;;;11.93;6.53;;;6.80;99.50;;;;;;5013395;28;20033;-47
2023/04/06 06:14:41;;;;;;;12.55;6.45;;;6.90;98.70;;;;;;5013603;28;20057;-46
2023/04/06 06:17:07;;;;;;;7.13;5.55;;;7.20;98.50;;;;;;5013661;28;20037;-46
2023/04/06 06:19:33;;;;;;;12.95;6.63;;;7.50;97.50;;;;;;5013659;28;20038;-44
2023/04/06 06:22:01;;;;;;;11.63;6.65;;;7.70;97.00;;;;;;5013430;28;20133;-48
2023/04/06 06:24:27;;;;;;;10.57;5.82;;;8.00;97.10;;;;;;5013392;28;20398;-47
2023/04/06 06:26:52;;;;;;;14.43;6.38;;;8.40;96.70;;;;;;5013283;28;20080;-45
2023/04/06 06:29:18;;;;;;;22.45;5.95;;;9.00;95.50;;;;;;5013367;28;20513;-44
2023/04/06 06:31:43;;;;;;;8.27;5.72;;;9.70;94.40;;;;;;5004836;28;20044;-42
2023/04/06 06:34:10;;;;;;;12.63;6.63;;;10.10;93.30;;;;;;5013656;28;20160;-47
2023/04/06 06:36:35;;;;;;;14.35;6.88;;;10.60;92.00;;;;;;5013868;28;20393;-41
2023/04/06 06:39:03;;;;;;;8.90;6.97;;;10.80;91.20;;;;;;5013133;28;20022;-45
2023/04/06 06:41:29;;;;;;;9.43;6.47;;;;;;;;;;5013150;28;20529;-43
2023/04/06 06:43:54;;;;;;;10.10;7.00;;;11.00;91.20;;;;;;5013174;28;20045;-39
2023/04/06 06:46:20;;;;;;;10.70;5.97;;;11.40;91.00;;;;;;4993801;28;20022;-46
2023/04/06 06:48:46;;;;;;;13.55;6.45;;;11.70;90.40;;;;;;4993401;28;20106;-46
2023/04/06 06:51:11;;;;;;;9.35;7.35;;;12.20;89.10;;;;;;4993469;28;20026;-43
2023/04/06 06:53:37;;;;;;;9.82;7.82;;;12.80;88.30;;;;;;4993209;28;20031;-45
2023/04/06 06:56:03;;;;;;;10.15;7.15;;;13.60;83.90;;;;;;4993322;28;20029;-44
2023/04/06 06:58:28;;;;;;;9.60;8.00;;;13.90;81.70;;;;;;5012065;28;20398;-49
2023/04/06 07:01:00;;;;;;;11.95;7.95;;;14.00;79.70;;;;;;5012274;28;20026;-45
2023/04/06 07:03:26;;;;;;;15.60;7.25;;;14.50;78.90;;;;;;5012420;28;20125;-44
2023/04/06 07:05:54;;;;;;;9.80;7.25;;;14.50;77.90;;;;;;5012578;28;20048;-45
2023/04/06 07:08:21;;;;;;;12.40;8.27;;;14.80;86.00;;;;;;5012189;28;20021;-44
2023/04/06 07:10:47;;;;;;;9.88;7.78;;;14.90;75.80;;;;;;5012763;28;20073;-44
2023/04/06 07:13:18;;;;;;;10.45;8.65;;;15.10;76.30;;;;;;5002411;28;20022;-48
2023/04/06 07:15:43;;;;;;;10.50;8.23;;;15.70;73.90;;;;;;4992936;28;20027;-47
2023/04/06 07:18:08;;;;;;;16.95;8.27;;;15.90;92.30;;;;;;4992727;28;20034;-45
2023/04/06 07:20:34;;;;;;;9.25;7.40;;;15.70;83.30;;;;;;4992796;28;20034;-44
2023/04/06 07:22:59;;;;;;;10.18;8.27;;;15.90;81.90;;;;;;4992375;28;20034;-44
2023/04/06 07:25:25;;;;;;;11.18;7.97;;;15.50;71.40;;;;;;5005143;28;20117;-47
2023/04/06 07:27:50;;;;;;;9.63;8.65;;;15.80;71.90;;;;;;5011966;28;20025;-45
2023/04/06 07:30:16;;;;;;;15.45;8.52;;;15.70;71.60;;;;;;5012098;28;20038;-49
2023/04/06 07:32:41;;;;;;;13.95;9.25;;;15.70;71.00;;;;;;5012182;28;20060;-49
2023/04/06 07:35:07;;;;;;;16.38;9.23;;;16.10;71.50;;;;;;5012153;28;20029;-45
2023/04/06 07:37:33;;;;;;;14.05;7.88;;;16.60;69.20;;;;;;5011915;28;20025;-44
2023/04/06 07:39:58;;;;;;;10.18;8.18;;;16.70;68.90;;;;;;5012025;28;20036;-44
2023/04/06 07:42:24;;;;;;;9.00;7.78;;;16.90;69.20;;;;;;5011646;28;20029;-46
2023/04/06 07:44:49;;;;;;;9.20;8.20;;;17.40;68.50;;;;;;5012126;28;20037;-48
2023/04/06 07:47:15;;;;;;;13.27;8.30;;;17.60;67.10;;;;;;5011928;28;20029;-44
2023/04/06 07:49:40;;;;;;;10.23;8.65;;;18.30;65.90;;;;;;5011786;28;20026;-47
2023/04/06 07:52:05;;;;;;;11.20;8.40;;;18.30;65.30;;;;;;5011722;28;20375;-46
2023/04/06 07:54:31;;;;;;;9.20;7.75;;;18.60;65.30;;;;;;5012061;28;20112;-46
2023/04/06 07:56:56;;;;;;;9.32;8.23;;;18.70;63.60;;;;;;5011651;28;20029;-48
2023/04/06 07:59:22;;;;;;;11.90;7.93;;;18.00;65.20;;;;;;5011737;28;20041;-47
2023/04/06 08:01:48;;;;;;;12.88;9.15;;;;;;;;;;5011433;28;20045;-47
2023/04/06 08:04:14;;;;;;;16.05;9.80;;;17.50;84.80;;;;;;5011798;28;20018;-47
2023/04/06 08:06:40;;;;;;;11.52;8.38;;;17.60;65.30;;;;;;5011675;28;20493;-45
2023/04/06 08:09:06;;;;;;;12.25;8.50;;;17.50;66.30;;;;;;5011769;28;20029;-46
2023/04/06 08:11:31;;;;;;;11.40;8.00;;;17.50;67.30;;;;;;5010636;28;20028;-44
2023/04/06 08:13:57;;;;;;;10.20;8.05;;;18.30;66.10;;;;;;5011554;28;20145;-46
2023/04/06 08:16:23;;;;;;;14.02;8.68;;;18.70;65.20;;;;;;5011633;28;20045;-49
2023/04/06 08:18:49;;;;;;;12.27;9.27;;;18.50;64.20;;;;;;5011502;28;20026;-48
2023/04/06 08:21:14;;;;;;;10.00;8.20;;;18.40;64.10;;;;;;5011857;28;20425;-47
2023/04/06 08:23:40;;;;;;;11.30;8.25;;;18.40;64.00;;;;;;5011322;28;20069;-50
2023/04/06 08:26:05;;;;;;;10.02;9.02;;;18.50;64.70;;;;;;5011522;28;20026;-47
2023/04/06 08:28:31;;;;;;;13.20;8.55;;;18.70;64.30;;;;;;5011491;28;20021;-48
2023/04/06 08:30:56;;;;;;;12.18;9.85;;;18.80;63.50;;;;;;5011676;28;20465;-45
2023/04/06 08:33:22;;;;;;;13.13;8.65;;;18.50;62.10;;;;;;5011275;28;20109;-49
2023/04/06 08:35:47;;;;;;;9.98;8.90;;;18.20;64.20;;;;;;5011267;28;20477;-49
2023/04/06 08:38:13;;;;;;;15.55;9.55;;;17.60;63.30;;;;;;5011318;28;20037;-46
2023/04/06 08:40:40;;;;;;;11.40;8.90;;;17.20;64.80;;;;;;5011154;28;20060;-49
2023/04/06 08:43:14;;;;;;;36.88;26.27;;;16.60;67.10;;;;;;5011107;28;20041;-45
2023/04/06 08:45:41;;;;;;;75.32;51.78;;;17.60;80.20;;;;;;5011429;28;20022;-43
2023/04/06 08:48:08;;;;;;;167.35;105.82;;;18.00;66.30;;;;;;5011134;28;20025;-49
2023/04/06 08:50:33;;;;;;;14.35;9.30;;;18.80;66.50;;;;;;5010800;28;20268;-47
2023/04/06 08:53:00;;;;;;;12.20;9.02;;;18.90;61.80;;;;;;5009452;28;20033;-45
2023/04/06 08:55:26;;;;;;;12.23;9.48;;;19.10;62.20;;;;;;5010819;28;20062;-44
2023/04/06 08:57:55;;;;;;;15.15;8.85;;;19.40;62.00;;;;;;5010184;28;20559;-48
2023/04/06 09:00:22;;;;;;;10.02;8.82;;;19.50;61.20;;;;;;5008049;28;20040;-44
2023/04/06 09:02:49;;;;;;;10.00;9.05;;;19.70;61.80;;;;;;5008347;28;20041;-45
2023/04/06 09:05:15;;;;;;;12.32;8.27;;;19.80;61.70;;;;;;5010222;28;20092;-46
2023/04/06 09:07:41;;;;;;;16.35;8.15;;;20.10;61.20;;;;;;5009346;28;20373;-45
2023/04/06 09:10:07;;;;;;;13.48;8.57;;;20.10;61.00;;;;;;5010999;28;20026;-43
2023/04/06 09:12:33;;;;;;;14.13;9.20;;;20.00;60.20;;;;;;5011244;28;20454;-43
2023/04/06 09:15:00;;;;;;;10.93;8.20;;;20.00;60.10;;;;;;5011175;28;20041;-44
2023/04/06 09:17:36;;;;;;;13.30;9.52;;;19.70;61.30;;;;;;5010994;28;20045;-44
2023/04/06 09:20:03;;;;;;;10.07;8.68;;;18.90;60.80;;;;;;5011035;28;20029;-45
2023/04/06 09:22:38;;;;;;;14.13;10.10;;;18.60;60.80;;;;;;5011460;28;20117;-46
2023/04/06 09:25:05;;;;;;;15.40;9.45;;;17.80;61.70;;;;;;5013680;28;20030;-44
2023/04/06 09:27:36;;;;;;;15.68;10.18;;;17.00;63.50;;;;;;5013902;28;20026;-45
2023/04/06 09:30:13;;;;;;;11.35;10.07;;;16.70;64.70;;;;;;5013726;28;20121;-49
2023/04/06 09:32:49;;;;;;;13.73;10.38;;;16.60;67.10;;;;;;5014044;28;20034;-45
2023/04/06 09:35:15;;;;;;;11.43;9.70;;;16.50;66.00;;;;;;5014374;28;20018;-48
2023/04/06 09:37:45;;;;;;;12.52;9.68;;;16.20;66.70;;;;;;5014308;28;20397;-45
2023/04/06 09:40:13;;;;;;;12.25;10.35;;;16.00;67.10;;;;;;5014218;28;20026;-43
2023/04/06 09:42:41;;;;;;;15.98;10.95;;;15.80;67.90;;;;;;5013751;28;20481;-47
2023/04/06 09:45:07;;;;;;;11.93;9.57;;;15.80;68.00;;;;;;5013915;28;20137;-45
2023/04/06 09:47:33;;;;;;;13.20;10.10;;;15.80;67.20;;;;;;5013603;28;20084;-45
2023/04/06 09:49:59;;;;;;;17.98;10.20;;;15.50;67.40;;;;;;5014065;28;20429;-43
2023/04/06 09:52:33;;;;;;;15.00;10.15;;;15.40;69.40;;;;;;5014088;28;20053;-42
2023/04/06 09:55:04;;;;;;;16.90;11.30;;;15.50;69.60;;;;;;5013856;28;20429;-47
2023/04/06 09:57:43;;;;;;;23.85;10.30;;;15.50;68.80;;;;;;5013346;28;20085;-43
2023/04/06 10:00:14;;;;;;;15.70;10.10;;;15.60;69.70;;;;;;5013475;28;20033;-43
2023/04/06 10:02:56;;;;;;;14.73;11.55;;;15.40;69.20;;;;;;5013665;28;20060;-44
2023/04/06 10:05:37;;;;;;;17.60;10.35;;;15.30;69.30;;;;;;5013644;28;20046;-45
2023/04/06 10:08:08;;;;;;;115.85;71.53;;;15.40;69.50;;;;;;5013250;28;20025;-45
2023/04/06 10:10:34;;;;;;;43.50;30.65;;;15.50;70.40;;;;;;5013825;28;20050;-45
2023/04/06 10:13:00;;;;;;;18.25;12.23;;;15.40;68.20;;;;;;5013685;28;20057;-42
2023/04/06 10:15:30;;;;;;;17.98;11.93;;;15.30;69.80;;;;;;5013491;28;20079;-48
2023/04/06 10:17:58;;;;;;;17.70;11.68;;;15.20;69.70;;;;;;5012797;28;20084;-50
2023/04/06 10:20:38;;;;;;;20.58;11.02;;;15.30;68.30;;;;;;5013399;28;20029;-45
2023/04/06 10:23:15;;;;;;;16.60;10.55;;;15.10;69.50;;;;;;5013122;28;20033;-47
2023/04/06 10:25:56;;;;;;;22.45;12.70;;;14.70;69.60;;;;;;5013403;28;20033;-45
2023/04/06 10:28:21;;;;;;;14.98;11.15;;;14.50;70.40;;;;;;5012996;28;20104;-48
2023/04/06 10:30:47;;;;;;;21.77;11.23;;;14.40;71.40;;;;;;5013765;28;20057;-48
2023/04/06 10:33:20;;;;;;;15.63;10.85;;;14.40;72.70;;;;;;5013022;28;20063;-49
2023/04/06 10:35:46;;;;;;;22.17;11.13;;;14.30;71.60;;;;;;5012525;28;20030;-47
2023/04/06 10:38:14;;;;;;;18.88;10.70;;;14.30;69.10;;;;;;5012501;28;20041;-45
2023/04/06 10:40:42;;;;;;;21.08;10.02;;;14.20;68.50;;;;;;5012863;28;20028;-46
2023/04/06 10:43:10;;;;;;;17.85;11.30;;;14.10;67.90;;;;;;5012762;28;20033;-44
2023/04/06 10:45:37;;;;;;;15.27;10.25;;;14.40;75.90;;;;;;5012992;28;20366;-44
2023/04/06 10:48:14;;;;;;;18.50;10.52;;;14.20;69.10;;;;;;5012929;28;20028;-49
2023/04/06 10:50:40;;;;;;;20.23;11.32;;;14.30;70.60;;;;;;5012649;28;20029;-46
2023/04/06 10:53:06;;;;;;;19.58;10.55;;;14.40;69.00;;;;;;5012871;28;20494;-48
2023/04/06 10:55:31;;;;;;;17.15;11.07;;;14.00;66.50;;;;;;5013217;28;20178;-46
2023/04/06 10:57:57;;;;;;;15.35;10.32;;;13.80;68.30;;;;;;4997860;28;20036;-51
2023/04/06 11:00:23;;;;;;;14.90;9.75;;;13.60;67.60;;;;;;5012720;28;20037;-50
2023/04/06 11:02:49;;;;;;;15.98;10.23;;;13.50;67.60;;;;;;5002644;28;20141;-48
2023/04/06 11:05:14;;;;;;;17.98;11.45;;;13.40;67.90;;;;;;4993087;28;20073;-47
2023/04/06 11:07:41;;;;;;;17.05;10.88;;;13.50;67.20;;;;;;5007819;28;20022;-50
2023/04/06 11:10:08;;;;;;;16.98;10.50;;;13.40;68.20;;;;;;5011144;28;20033;-48
2023/04/06 11:12:34;;;;;;;15.38;9.68;;;13.40;69.30;;;;;;5012009;28;20471;-52
2023/04/06 11:15:06;;;;;;;17.15;11.20;;;13.50;68.80;;;;;;5012546;28;20053;-48
2023/04/06 11:17:36;;;;;;;17.08;10.63;;;13.70;69.10;;;;;;5012287;28;20030;-47
2023/04/06 11:20:03;;;;;;;15.73;10.10;;;13.80;68.00;;;;;;5012287;28;20033;-46
2023/04/06 11:22:28;;;;;;;14.55;10.45;;;13.90;69.10;;;;;;5012323;28;20022;-49
2023/04/06 11:25:08;;;;;;;12.95;9.70;;;14.00;68.30;;;;;;5012350;28;20026;-47
2023/04/06 11:27:34;;;;;;;13.27;9.25;;;14.00;66.20;;;;;;5012134;28;20021;-45
2023/04/06 11:30:01;;;;;;;14.30;9.82;;;14.00;65.50;;;;;;5012066;28;20026;-51
2023/04/06 11:32:27;;;;;;;18.60;11.00;;;13.90;66.40;;;;;;5012274;28;20026;-48
2023/04/06 11:34:52;;;;;;;19.17;10.07;;;14.00;66.60;;;;;;5012625;28;20037;-50
2023/04/06 11:37:18;;;;;;;13.88;9.60;;;13.90;65.10;;;;;;5012409;28;20030;-46
2023/04/06 11:39:50;;;;;;;14.40;9.55;;;13.80;67.20;;;;;;5012312;28;20060;-45
2023/04/06 11:42:22;;;;;;;13.60;9.80;;;13.80;66.70;;;;;;5012029;28;20026;-43
2023/04/06 11:44:52;;;;;;;15.57;9.98;;;13.80;66.30;;;;;;5012366;28;20021;-46
2023/04/06 11:47:18;;;;;;;15.68;10.63;;;13.90;68.20;;;;;;5012001;28;20511;-44
2023/04/06 11:49:47;;;;;;;14.00;10.80;;;14.00;67.10;;;;;;5012402;28;20097;-46
2023/04/06 11:52:26;;;;;;;15.75;10.45;;;14.20;67.80;;;;;;5011786;28;20028;-47
2023/04/06 11:54:54;;;;;;;17.58;11.25;;;14.30;66.10;;;;;;5012090;28;20105;-47
2023/04/06 11:57:21;;;;;;;19.50;11.93;;;14.40;67.30;;;;;;5012049;28;20088;-48
2023/04/06 11:59:47;;;;;;;16.30;10.73;;;;;;;;;;4993645;28;20034;-44
2023/04/06 12:02:13;;;;;;;16.77;10.93;;;14.30;65.40;;;;;;5011347;28;20026;-46
2023/04/06 12:04:39;;;;;;;14.48;10.10;;;14.30;66.00;;;;;;5011779;28;20053;-47
2023/04/06 12:07:05;;;;;;;32.40;19.92;;;14.40;67.80;;;;;;5011529;28;20025;-47
2023/04/06 12:09:30;;;;;;;37.72;22.50;;;14.50;67.30;;;;;;5011254;28;20399;-52
2023/04/06 12:11:56;;;;;;;16.40;10.57;;;14.60;65.70;;;;;;5011404;28;20478;-51
2023/04/06 12:14:22;;;;;;;13.38;9.48;;;14.50;65.60;;;;;;5011818;28;20026;-44
2023/04/06 12:16:48;;;;;;;19.02;11.10;;;14.40;65.40;;;;;;5011612;28;20362;-45
2023/04/06 12:19:13;;;;;;;16.50;10.15;;;14.20;65.30;;;;;;5011529;28;20025;-49
2023/04/06 12:21:40;;;;;;;15.05;10.23;;;14.10;65.30;;;;;;5011538;28;20029;-46
2023/04/06 12:24:05;;;;;;;15.05;10.05;;;14.10;65.50;;;;;;5011671;28;20025;-50
2023/04/06 12:26:31;;;;;;;13.77;9.18;;;14.20;66.30;;;;;;5011534;28;20032;-48
2023/04/06 12:29:04;;;;;;;15.18;10.13;;;14.30;68.40;;;;;;5011364;28;20029;-43
2023/04/06 12:31:30;;;;;;;14.63;9.50;;;14.30;65.00;;;;;;5011318;28;20121;-46
2023/04/06 12:33:55;;;;;;;14.77;9.10;;;14.20;66.00;;;;;;5011360;28;20494;-45
2023/04/06 12:36:21;;;;;;;15.70;9.80;;;14.30;65.70;;;;;;5011492;28;20022;-45
2023/04/06 12:38:48;;;;;;;12.27;8.60;;;14.30;65.10;;;;;;5011462;28;20489;-45
2023/04/06 12:41:13;;;;;;;19.10;9.60;;;14.30;66.20;;;;;;5011462;28;20026;-46